Terminal Aerodrome Forecast
Issued by NWS

Current Version | Previous Version | Graphics & Text | Print | Product List | Glossary On
Versions: 1 2 3 4 5 6 7 8 9 10 11 12 13 14 15 16 17 18 19 20 21 22 23 24 25
794
FTUS41 KILN 231132
TAFLCK
TAF
KLCK 231132Z 2312/2412 20010KT 5SM -SHRA BR OVC007
     FM231400 22014G20KT 5SM SHRA BR SCT007 OVC015
      TEMPO 2314/2318 3SM TSRA OVC010CB
     FM232200 23014KT P6SM VCSH BKN025 OVC100
      TEMPO 2322/2402 3SM -SHRA OVC015
     FM240200 30007KT P6SM BKN020=

USA.gov is the U.S. government's official web portal to all federal, state and local government web resources and services.